Time;durP1;ratioP1;P1;durP2;ratioP2;P2;SDS_P1;SDS_P2;PMS_P1;PMS_P2;Temp;Humidity;BMP_temperature;BMP_pressure;BME280_temperature;BME280_humidity;BME280_pressure;Samples;Min_cycle;Max_cycle;Signal;HPM_P1;HPM_P2
2022/04/24 00:00:38;;;;;;;6.63;5.55;;;17.50;51.10;;;;;;4223182;28;20048;-66
2022/04/24 00:03:00;;;;;;;6.45;5.80;;;17.50;51.10;;;;;;4223131;28;20047;-66
2022/04/24 00:05:22;;;;;;;6.30;5.80;;;17.50;51.10;;;;;;4206787;28;20587;-66
2022/04/24 00:07:46;;;;;;;7.10;5.93;;;17.50;51.40;;;;;;4205434;28;20127;-66
2022/04/24 00:10:10;;;;;;;6.40;5.68;;;17.50;51.00;;;;;;4205886;28;20049;-66
2022/04/24 00:12:32;;;;;;;6.78;6.18;;;17.50;51.20;;;;;;4206669;28;20052;-66
2022/04/24 00:14:54;;;;;;;6.85;6.22;;;17.40;50.90;;;;;;4220557;28;20470;-66
2022/04/24 00:17:16;;;;;;;5.75;5.25;;;17.40;50.90;;;;;;4222705;28;20129;-66
2022/04/24 00:19:39;;;;;;;8.65;6.10;;;17.40;51.00;;;;;;4222487;28;20690;-66
2022/04/24 00:22:01;;;;;;;6.60;5.28;;;17.40;51.20;;;;;;4222616;28;20409;-66
2022/04/24 00:24:25;;;;;;;8.52;6.07;;;17.40;51.20;;;;;;4222753;28;20438;-66
2022/04/24 00:26:47;;;;;;;7.50;6.15;;;17.40;50.90;;;;;;4222888;28;20508;-66
2022/04/24 00:29:10;;;;;;;6.30;5.75;;;17.40;51.20;;;;;;4223129;28;20048;-67
2022/04/24 00:31:32;;;;;;;7.75;6.00;;;17.40;50.90;;;;;;4222813;28;20071;-66
2022/04/24 00:33:54;;;;;;;6.53;5.93;;;17.30;50.80;;;;;;4222801;28;20104;-66
2022/04/24 00:36:17;;;;;;;7.55;6.55;;;17.30;51.00;;;;;;4222754;28;20094;-66
2022/04/24 00:38:39;;;;;;;7.20;6.53;;;17.30;51.00;;;;;;4221348;28;20173;-66
2022/04/24 00:41:02;;;;;;;6.22;5.60;;;17.30;51.00;;;;;;4222495;28;20051;-66
2022/04/24 00:43:24;;;;;;;6.57;5.72;;;17.30;50.90;;;;;;4222281;28;20085;-66
2022/04/24 00:46:14;;;;;;;6.75;6.15;;;17.30;50.80;;;;;;4222525;28;20051;-66
2022/04/24 00:48:36;;;;;;;8.48;5.30;;;17.20;50.50;;;;;;4222282;28;20032;-66
2022/04/24 00:51:04;;;;;;;6.32;5.82;;;17.20;51.00;;;;;;4222414;28;20047;-66
2022/04/24 00:53:26;;;;;;;7.03;6.32;;;17.20;50.80;;;;;;4204626;28;20040;-67
2022/04/24 00:55:48;;;;;;;7.38;6.63;;;17.20;50.60;;;;;;4204130;28;20131;-66
2022/04/24 00:58:12;;;;;;;7.28;6.55;;;17.10;50.70;;;;;;4204649;28;20044;-67
2022/04/24 01:00:34;;;;;;;7.25;6.50;;;17.10;50.70;;;;;;4205767;28;20082;-66
2022/04/24 01:02:59;;;;;;;7.35;6.68;;;17.10;51.50;;;;;;4209672;28;20047;-67
2022/04/24 01:05:22;;;;;;;7.07;6.43;;;17.10;50.70;;;;;;4211306;28;20101;-66
2022/04/24 01:07:43;;;;;;;6.63;6.03;;;17.10;50.70;;;;;;4210987;28;20044;-66
2022/04/24 01:10:06;;;;;;;8.80;5.72;;;17.10;50.80;;;;;;4211178;28;20082;-68
2022/04/24 01:12:29;;;;;;;7.00;6.20;;;17.10;51.00;;;;;;4210667;28;20047;-67
2022/04/24 01:14:52;;;;;;;7.20;6.47;;;17.10;51.00;;;;;;4211221;28;20129;-68
2022/04/24 01:17:15;;;;;;;7.25;6.55;;;17.00;50.80;;;;;;4210501;28;20556;-65
2022/04/24 01:19:37;;;;;;;7.28;6.57;;;17.00;50.90;;;;;;4210747;28;20054;-66
2022/04/24 01:22:00;;;;;;;7.28;6.57;;;17.10;50.90;;;;;;4210497;28;20405;-67
2022/04/24 01:24:24;;;;;;;7.40;6.22;;;17.00;50.80;;;;;;4210631;28;20159;-66
2022/04/24 01:26:46;;;;;;;6.88;6.18;;;17.00;50.80;;;;;;4211023;28;20050;-66
2022/04/24 01:29:09;;;;;;;7.10;6.40;;;17.10;50.70;;;;;;4193979;28;20056;-67
2022/04/24 01:31:32;;;;;;;7.68;6.40;;;17.00;50.90;;;;;;4197091;28;20733;-66
2022/04/24 01:33:54;;;;;;;7.10;6.45;;;17.00;50.70;;;;;;4192214;28;20064;-67
2022/04/24 01:36:16;;;;;;;6.70;6.10;;;17.00;51.00;;;;;;4193692;28;20502;-66
2022/04/24 01:38:40;;;;;;;8.30;6.95;;;17.00;50.80;;;;;;4193562;28;20048;-66
2022/04/24 01:41:01;;;;;;;7.32;6.55;;;17.00;50.70;;;;;;4193601;28;20449;-66
2022/04/24 01:43:24;;;;;;;6.70;6.03;;;17.00;50.90;;;;;;4193889;28;20071;-66
2022/04/24 01:45:46;;;;;;;6.85;6.25;;;17.00;51.70;;;;;;4193595;28;20133;-66
2022/04/24 01:48:08;;;;;;;6.80;6.07;;;17.00;50.90;;;;;;4192995;28;20078;-66
2022/04/24 01:50:30;;;;;;;6.65;5.93;;;17.00;50.90;;;;;;4193452;28;20072;-66
2022/04/24 01:52:52;;;;;;;7.70;6.45;;;16.90;50.60;;;;;;4207699;28;20051;-66
2022/04/24 01:55:16;;;;;;;8.73;6.20;;;16.90;50.60;;;;;;4193873;28;20124;-65
2022/04/24 01:57:43;;;;;;;6.80;6.20;;;16.90;50.80;;;;;;4193596;28;20048;-66
2022/04/24 02:00:06;;;;;;;6.40;5.78;;;16.90;50.80;;;;;;4192200;28;20060;-68
2022/04/24 02:02:33;;;;;;;7.40;5.65;;;16.90;51.00;;;;;;4204729;28;20062;-67
2022/04/24 02:04:55;;;;;;;6.80;6.10;;;16.90;51.30;;;;;;4208547;28;20148;-67
2022/04/24 02:07:17;;;;;;;6.75;6.03;;;16.90;51.20;;;;;;4210585;28;20051;-66
2022/04/24 02:09:40;;;;;;;5.72;5.22;;;16.90;51.80;;;;;;4210115;28;20113;-66
2022/04/24 02:12:04;;;;;;;6.78;5.70;;;16.90;51.10;;;;;;4210054;28;20131;-66
2022/04/24 02:14:26;;;;;;;5.85;5.22;;;16.90;50.90;;;;;;4209465;28;20067;-66
2022/04/24 02:16:48;;;;;;;5.60;5.10;;;16.90;50.80;;;;;;4208887;28;20062;-67
2022/04/24 02:19:10;;;;;;;6.28;5.68;;;16.90;50.90;;;;;;4209685;28;20079;-67
2022/04/24 02:21:32;;;;;;;5.72;5.22;;;16.90;50.40;;;;;;4209498;28;20522;-65
2022/04/24 02:23:54;;;;;;;7.50;6.63;;;16.80;50.40;;;;;;4209441;28;20113;-67
2022/04/24 02:26:16;;;;;;;5.95;5.20;;;16.80;50.70;;;;;;4209991;28;20054;-67
2022/04/24 02:28:40;;;;;;;5.63;5.15;;;16.90;50.80;;;;;;4208694;28;20510;-67
2022/04/24 02:31:02;;;;;;;7.57;5.10;;;16.80;50.60;;;;;;4209771;28;20524;-66
2022/04/24 02:33:24;;;;;;;6.38;5.60;;;16.80;50.40;;;;;;4209293;28;20056;-66
2022/04/24 02:35:46;;;;;;;6.97;5.40;;;16.80;50.70;;;;;;4209569;28;20048;-66
2022/04/24 02:38:08;;;;;;;6.13;5.63;;;16.80;50.70;;;;;;4209760;28;20044;-66
2022/04/24 02:40:30;;;;;;;5.55;4.88;;;16.80;50.90;;;;;;4208830;28;20050;-66
2022/04/24 02:42:53;;;;;;;5.60;5.00;;;16.80;50.50;;;;;;4207978;28;20138;-66
2022/04/24 02:45:17;;;;;;;5.60;4.90;;;16.80;50.40;;;;;;4209228;28;20098;-66
2022/04/24 02:47:39;;;;;;;6.85;5.57;;;16.80;50.30;;;;;;4209072;28;20098;-66
2022/04/24 02:50:01;;;;;;;6.18;5.32;;;16.80;50.10;;;;;;4208229;28;20142;-66
2022/04/24 02:52:23;;;;;;;7.85;5.72;;;16.80;50.30;;;;;;4209250;28;20044;-66
2022/04/24 02:54:45;;;;;;;6.97;5.80;;;16.70;51.30;;;;;;4208097;28;20047;-66
2022/04/24 02:57:07;;;;;;;6.18;4.97;;;16.70;50.60;;;;;;4209441;28;20044;-66
2022/04/24 02:59:30;;;;;;;5.85;5.25;;;16.70;50.60;;;;;;4209560;28;20054;-66
2022/04/24 03:01:54;;;;;;;7.63;5.80;;;16.70;50.90;;;;;;4209372;28;20040;-66
2022/04/24 03:04:17;;;;;;;7.53;5.78;;;16.70;50.90;;;;;;4209400;28;20051;-66
2022/04/24 03:06:39;;;;;;;7.43;6.50;;;16.70;51.00;;;;;;4209484;28;20055;-65
2022/04/24 03:09:01;;;;;;;8.13;5.78;;;16.70;50.90;;;;;;4207884;28;20044;-66
2022/04/24 03:11:23;;;;;;;5.78;5.28;;;16.70;51.20;;;;;;4209210;28;20044;-67
2022/04/24 03:13:45;;;;;;;7.55;5.85;;;16.70;51.10;;;;;;4207974;28;20426;-67
2022/04/24 03:16:07;;;;;;;7.15;5.50;;;16.60;51.00;;;;;;4209049;28;20052;-67
2022/04/24 03:18:31;;;;;;;6.45;5.32;;;16.70;51.00;;;;;;4207892;28;20505;-67
2022/04/24 03:20:53;;;;;;;5.65;5.18;;;16.60;51.20;;;;;;4209285;28;20079;-66
2022/04/24 03:23:15;;;;;;;8.88;5.63;;;16.60;51.10;;;;;;4192293;28;20470;-66
2022/04/24 03:25:37;;;;;;;6.15;5.13;;;16.60;51.80;;;;;;4192404;28;20056;-66
2022/04/24 03:27:59;;;;;;;8.05;5.78;;;16.60;50.80;;;;;;4192225;28;20132;-66
2022/04/24 03:30:22;;;;;;;6.63;5.35;;;16.60;51.00;;;;;;4192681;28;20385;-66
2022/04/24 03:32:44;;;;;;;5.53;5.13;;;16.60;51.00;;;;;;4206321;28;20485;-66
2022/04/24 03:35:11;;;;;;;5.68;5.20;;;16.50;51.00;;;;;;4208783;28;20051;-66
2022/04/24 03:37:33;;;;;;;5.50;5.10;;;16.50;51.30;;;;;;4208494;28;20502;-66
2022/04/24 03:39:56;;;;;;;6.38;5.60;;;16.50;51.20;;;;;;4207286;28;20036;-66
2022/04/24 03:42:18;;;;;;;5.78;5.28;;;16.50;51.60;;;;;;4208737;28;20052;-67
2022/04/24 03:44:40;;;;;;;6.18;5.32;;;16.50;51.40;;;;;;4208880;28;20117;-66
2022/04/24 03:47:03;;;;;;;8.20;5.60;;;16.50;51.30;;;;;;4208655;28;20062;-66
2022/04/24 03:49:25;;;;;;;8.07;5.07;;;16.50;51.30;;;;;;4207231;28;20488;-65
2022/04/24 03:51:48;;;;;;;6.43;5.80;;;16.50;51.40;;;;;;4208458;28;20052;-65
2022/04/24 03:54:10;;;;;;;6.40;5.50;;;16.50;51.50;;;;;;4208871;28;20044;-66
2022/04/24 03:56:32;;;;;;;6.68;5.13;;;16.50;51.40;;;;;;4209048;28;20048;-66
2022/04/24 03:58:54;;;;;;;5.97;5.38;;;16.50;51.50;;;;;;4207568;28;20047;-66
2022/04/24 04:01:17;;;;;;;6.00;5.28;;;16.50;51.60;;;;;;4208717;28;20052;-66
2022/04/24 04:03:39;;;;;;;8.50;4.85;;;16.40;51.50;;;;;;4208900;28;20057;-66
2022/04/24 04:06:01;;;;;;;7.47;5.10;;;16.40;51.80;;;;;;4208659;28;20073;-66
2022/04/24 04:08:24;;;;;;;6.30;5.70;;;16.40;51.90;;;;;;4208313;28;20066;-66
2022/04/24 04:10:46;;;;;;;5.82;5.18;;;16.40;51.90;;;;;;4207375;28;20146;-66
2022/04/24 04:13:09;;;;;;;5.68;5.03;;;16.40;52.10;;;;;;4190740;28;20041;-65
2022/04/24 04:15:32;;;;;;;6.80;5.30;;;16.40;51.90;;;;;;4191949;28;20053;-66
2022/04/24 04:17:54;;;;;;;6.22;5.63;;;16.40;52.00;;;;;;4201438;28;20044;-67
2022/04/24 04:20:16;;;;;;;7.85;5.68;;;16.40;52.30;;;;;;4208714;28;20406;-67
2022/04/24 04:22:48;;;;;;;6.13;5.53;;;16.40;52.10;;;;;;4208383;28;20048;-66
2022/04/24 04:25:11;;;;;;;5.90;5.20;;;16.40;52.00;;;;;;4208568;28;20136;-67
2022/04/24 04:27:34;;;;;;;6.18;4.93;;;16.40;52.20;;;;;;4208797;28;20083;-68
2022/04/24 04:29:56;;;;;;;7.07;5.80;;;16.40;52.40;;;;;;4206998;28;20056;-67
2022/04/24 04:32:18;;;;;;;6.53;5.63;;;16.40;52.40;;;;;;4201496;28;20051;-67
2022/04/24 04:34:40;;;;;;;5.85;5.22;;;16.40;52.40;;;;;;4217536;28;20682;-67
2022/04/24 04:37:03;;;;;;;6.32;5.38;;;16.40;52.60;;;;;;4210306;28;20040;-68
2022/04/24 04:39:25;;;;;;;6.88;6.18;;;16.40;52.50;;;;;;4211675;28;20460;-68
2022/04/24 04:41:48;;;;;;;7.13;6.30;;;16.40;52.60;;;;;;4211422;28;20079;-67
2022/04/24 04:44:10;;;;;;;6.55;5.85;;;16.30;52.60;;;;;;4211459;28;20135;-67
2022/04/24 04:46:32;;;;;;;10.18;6.43;;;16.30;53.00;;;;;;4211816;28;20134;-67
2022/04/24 04:48:54;;;;;;;6.65;6.05;;;16.30;53.10;;;;;;4211381;28;20043;-67
2022/04/24 04:51:16;;;;;;;7.72;6.72;;;16.30;53.20;;;;;;4209640;28;20550;-67
2022/04/24 04:53:38;;;;;;;7.85;6.60;;;16.30;53.20;;;;;;4211536;28;20493;-68
2022/04/24 04:56:00;;;;;;;7.85;6.78;;;16.30;53.40;;;;;;4211244;28;20557;-68
2022/04/24 04:58:24;;;;;;;9.40;6.72;;;16.30;53.50;;;;;;4194642;28;20060;-68
2022/04/24 05:00:46;;;;;;;7.47;6.63;;;16.30;53.60;;;;;;4194561;28;20052;-67
2022/04/24 05:03:08;;;;;;;10.52;6.50;;;16.20;53.60;;;;;;4193551;28;20082;-67
2022/04/24 05:05:31;;;;;;;8.63;6.85;;;16.20;53.80;;;;;;4194639;28;20051;-67
2022/04/24 05:07:53;;;;;;;12.48;6.70;;;16.20;54.00;;;;;;4205687;28;20465;-68
2022/04/24 05:10:15;;;;;;;8.10;6.53;;;16.20;54.00;;;;;;4209528;28;20410;-68
2022/04/24 05:12:38;;;;;;;9.60;6.53;;;16.20;54.00;;;;;;4209754;28;20048;-68
2022/04/24 05:15:06;;;;;;;12.88;7.68;;;16.20;54.10;;;;;;4210509;28;20051;-68
2022/04/24 05:17:28;;;;;;;8.32;7.47;;;16.20;54.10;;;;;;4210320;28;20044;-68
2022/04/24 05:19:50;;;;;;;8.25;6.97;;;16.20;54.00;;;;;;4210922;28;20063;-68
2022/04/24 05:22:13;;;;;;;9.63;7.57;;;16.20;54.10;;;;;;4210622;28;20047;-67
2022/04/24 05:24:36;;;;;;;9.88;7.25;;;16.20;54.10;;;;;;4209042;28;20044;-68
2022/04/24 05:27:00;;;;;;;11.02;7.57;;;16.20;54.20;;;;;;4210098;28;20582;-69
2022/04/24 05:29:22;;;;;;;8.00;7.10;;;16.20;54.40;;;;;;4210709;28;20059;-67
2022/04/24 05:31:45;;;;;;;10.00;7.60;;;16.20;54.40;;;;;;4210708;28;20052;-66
2022/04/24 05:34:07;;;;;;;11.35;6.78;;;16.20;54.30;;;;;;4210917;28;20043;-67
2022/04/24 05:36:29;;;;;;;8.23;6.93;;;16.20;54.30;;;;;;4210517;28;20552;-67
2022/04/24 05:38:51;;;;;;;9.98;7.03;;;16.20;54.30;;;;;;4209263;28;20044;-66
2022/04/24 05:41:13;;;;;;;9.85;6.68;;;16.20;54.20;;;;;;4210541;28;20132;-67
2022/04/24 05:43:35;;;;;;;6.88;5.82;;;16.20;54.40;;;;;;4210645;28;20047;-67
2022/04/24 05:45:59;;;;;;;8.30;6.28;;;16.20;54.20;;;;;;4210862;28;20074;-66
2022/04/24 05:48:22;;;;;;;6.75;6.05;;;16.30;54.10;;;;;;4204275;28;20189;-66
2022/04/24 05:50:44;;;;;;;8.27;5.82;;;16.30;54.00;;;;;;4210346;28;20105;-66
2022/04/24 05:53:06;;;;;;;8.18;5.88;;;16.30;53.80;;;;;;4210156;28;20052;-66
2022/04/24 05:55:28;;;;;;;7.47;5.93;;;16.30;53.80;;;;;;4210148;28;20500;-66
2022/04/24 05:57:50;;;;;;;7.70;5.47;;;16.40;53.90;;;;;;4210328;28;20501;-66
2022/04/24 06:00:13;;;;;;;9.70;5.70;;;16.40;53.40;;;;;;4210100;28;20089;-67
2022/04/24 06:02:35;;;;;;;9.73;5.88;;;16.40;53.00;;;;;;4209512;28;20044;-66
2022/04/24 06:04:59;;;;;;;5.45;4.63;;;16.40;53.30;;;;;;4210121;28;20067;-67
2022/04/24 06:07:23;;;;;;;6.88;5.38;;;16.40;53.10;;;;;;4210176;28;20536;-66
2022/04/24 06:09:45;;;;;;;6.50;5.00;;;16.40;53.30;;;;;;4210384;28;20094;-66
2022/04/24 06:12:09;;;;;;;6.97;4.70;;;16.50;52.90;;;;;;4208486;28;20500;-66
2022/04/24 06:14:31;;;;;;;6.15;4.60;;;16.50;52.60;;;;;;4209950;28;20139;-65
2022/04/24 06:16:53;;;;;;;5.53;4.45;;;16.50;52.60;;;;;;4210398;28;20517;-66
2022/04/24 06:19:15;;;;;;;6.93;4.43;;;16.40;52.90;;;;;;4210107;28;20051;-66
2022/04/24 06:21:39;;;;;;;5.10;3.88;;;16.50;53.20;;;;;;4209527;28;20098;-65
2022/04/24 06:24:05;;;;;;;8.00;4.30;;;16.50;53.10;;;;;;4205555;28;20052;-66
2022/04/24 06:26:28;;;;;;;6.80;4.70;;;16.50;52.60;;;;;;4210033;28;20051;-66
2022/04/24 06:28:50;;;;;;;4.35;3.95;;;16.50;52.30;;;;;;4208824;28;20097;-66
2022/04/24 06:31:12;;;;;;;7.35;4.65;;;16.50;52.30;;;;;;4216551;28;20105;-67
2022/04/24 06:33:34;;;;;;;5.65;3.63;;;16.50;52.20;;;;;;4216838;28;20455;-66
2022/04/24 06:35:57;;;;;;;5.55;4.03;;;16.50;52.00;;;;;;4209887;28;20094;-67
2022/04/24 06:38:22;;;;;;;4.85;3.88;;;16.40;52.30;;;;;;4217013;27;20052;-68
2022/04/24 06:40:45;;;;;;;4.57;4.10;;;16.40;52.20;;;;;;4205808;28;20048;-67
2022/04/24 06:43:08;;;;;;;3.35;3.03;;;16.40;52.10;;;;;;4216111;28;20052;-67
2022/04/24 06:45:33;;;;;;;3.40;3.10;;;16.40;52.10;;;;;;4212930;28;20055;-67
2022/04/24 06:47:55;;;;;;;6.95;3.28;;;16.40;52.10;;;;;;4198194;28;20051;-67
2022/04/24 06:50:18;;;;;;;4.18;2.90;;;16.40;52.20;;;;;;4209312;28;20048;-67
2022/04/24 06:52:40;;;;;;;3.97;3.40;;;16.40;52.30;;;;;;4208252;28;20047;-67
2022/04/24 06:55:06;;;;;;;3.85;2.83;;;16.40;52.50;;;;;;4209564;28;20048;-68
2022/04/24 06:57:28;;;;;;;5.18;2.92;;;16.50;52.30;;;;;;4209008;28;20167;-67
2022/04/24 06:59:50;;;;;;;4.55;2.55;;;16.50;52.30;;;;;;4207175;28;20040;-68
2022/04/24 07:02:12;;;;;;;6.13;2.50;;;16.50;52.40;;;;;;4210850;28;20058;-69
2022/04/24 07:04:34;;;;;;;3.13;2.92;;;16.60;52.60;;;;;;4208971;28;20425;-69
2022/04/24 07:06:56;;;;;;;4.85;2.85;;;16.70;52.40;;;;;;4208524;28;20379;-68
2022/04/24 07:09:18;;;;;;;3.95;2.90;;;16.70;52.10;;;;;;4209097;28;20047;-68
2022/04/24 07:11:43;;;;;;;3.28;2.92;;;16.80;52.00;;;;;;4209235;28;20044;-67
2022/04/24 07:14:05;;;;;;;3.85;2.92;;;16.80;51.80;;;;;;4208537;28;20113;-68
2022/04/24 07:16:27;;;;;;;2.47;2.30;;;16.80;51.90;;;;;;4208773;28;20131;-68
2022/04/24 07:18:49;;;;;;;3.42;2.47;;;16.90;53.60;;;;;;4208858;28;20048;-68
2022/04/24 07:21:11;;;;;;;2.58;2.38;;;16.90;53.80;;;;;;4208785;28;20059;-67
2022/04/24 07:23:35;;;;;;;3.17;2.95;;;16.90;53.10;;;;;;4208514;28;20040;-67
2022/04/24 07:25:58;;;;;;;3.78;2.72;;;16.90;52.60;;;;;;4206009;28;20067;-67
2022/04/24 07:28:22;;;;;;;4.53;3.15;;;17.00;52.40;;;;;;4208707;28;20482;-68
2022/04/24 07:30:45;;;;;;;3.80;2.60;;;17.00;51.90;;;;;;4208428;28;20059;-67
2022/04/24 07:33:07;;;;;;;3.95;2.55;;;17.00;51.60;;;;;;4209076;28;20047;-67
2022/04/24 07:35:32;;;;;;;3.33;3.03;;;17.00;52.30;;;;;;4206433;28;20048;-67
2022/04/24 07:37:54;;;;;;;3.05;2.83;;;17.00;51.70;;;;;;4214557;28;20051;-67
2022/04/24 07:40:19;;;;;;;4.22;2.88;;;17.00;52.40;;;;;;4208937;28;20130;-67
2022/04/24 07:42:49;;;;;;;4.90;3.03;;;17.10;51.60;;;;;;4208885;28;20043;-67
2022/04/24 07:45:18;;;;;;;3.53;3.20;;;17.10;51.90;;;;;;4207586;28;20046;-68
2022/04/24 07:47:39;;;;;;;3.88;2.80;;;17.10;51.10;;;;;;4208554;28;20375;-66
2022/04/24 07:50:01;;;;;;;4.93;3.50;;;17.10;51.30;;;;;;4208712;28;20372;-66
2022/04/24 07:52:23;;;;;;;3.72;3.42;;;17.10;51.30;;;;;;4208947;28;20076;-67
2022/04/24 07:54:45;;;;;;;4.30;3.10;;;17.10;51.20;;;;;;4208215;28;20052;-68
2022/04/24 07:57:07;;;;;;;3.50;3.22;;;17.10;51.10;;;;;;4208514;28;20513;-67
2022/04/24 07:59:30;;;;;;;6.25;3.40;;;17.20;51.30;;;;;;4208747;28;20044;-68
2022/04/24 08:01:53;;;;;;;3.97;3.13;;;17.10;51.40;;;;;;4208789;28;20074;-68
2022/04/24 08:04:15;;;;;;;5.05;3.13;;;17.20;51.60;;;;;;4208393;28;20136;-68
2022/04/24 08:06:37;;;;;;;3.95;3.40;;;17.20;51.10;;;;;;4208500;28;20078;-68
2022/04/24 08:09:00;;;;;;;3.65;3.33;;;17.30;51.20;;;;;;4208344;28;20436;-68
2022/04/24 08:11:22;;;;;;;4.57;2.83;;;17.30;50.80;;;;;;4202710;28;20131;-68
2022/04/24 08:13:44;;;;;;;4.25;3.13;;;17.30;50.50;;;;;;4212103;28;20479;-68
2022/04/24 08:16:06;;;;;;;4.32;3.17;;;17.40;50.90;;;;;;4212289;28;20036;-68
2022/04/24 08:18:30;;;;;;;4.88;3.40;;;17.40;50.90;;;;;;4211046;28;20074;-67
2022/04/24 08:20:52;;;;;;;4.90;3.17;;;17.40;50.70;;;;;;4211504;28;20055;-67
2022/04/24 08:23:16;;;;;;;5.68;3.63;;;17.50;50.00;;;;;;4211111;28;20040;-68
2022/04/24 08:25:39;;;;;;;5.40;3.42;;;17.50;49.60;;;;;;4211759;28;20142;-68
2022/04/24 08:28:02;;;;;;;4.93;3.20;;;17.50;49.60;;;;;;4211675;28;20132;-68
2022/04/24 08:30:25;;;;;;;3.53;2.75;;;17.50;50.60;;;;;;4210337;28;20169;-68
2022/04/24 08:32:48;;;;;;;3.78;3.05;;;17.50;49.80;;;;;;4211686;28;20121;-68
2022/04/24 08:35:13;;;;;;;5.30;3.58;;;17.50;49.80;;;;;;4211704;28;20044;-68
2022/04/24 08:37:36;;;;;;;4.53;3.47;;;17.50;50.00;;;;;;4218926;27;20048;-67
2022/04/24 08:39:59;;;;;;;5.50;3.42;;;17.50;49.70;;;;;;4211305;28;20067;-68
2022/04/24 08:42:22;;;;;;;3.00;2.78;;;17.50;49.50;;;;;;4211554;28;20151;-68
2022/04/24 08:44:43;;;;;;;3.55;3.20;;;17.50;50.00;;;;;;4211523;28;20055;-68
2022/04/24 08:47:09;;;;;;;4.03;3.60;;;17.50;49.70;;;;;;4211353;28;20052;-68
2022/04/24 08:49:31;;;;;;;4.63;2.88;;;17.60;50.00;;;;;;4210985;28;20101;-68
2022/04/24 08:51:55;;;;;;;3.45;2.83;;;17.60;49.70;;;;;;4211735;28;20048;-68
2022/04/24 08:54:19;;;;;;;4.18;3.17;;;17.60;49.50;;;;;;4211590;28;20110;-68
2022/04/24 08:56:41;;;;;;;5.90;2.97;;;17.60;49.80;;;;;;4210659;28;20129;-68
2022/04/24 08:59:03;;;;;;;3.75;3.45;;;17.60;49.40;;;;;;4209838;28;20048;-67
2022/04/24 09:01:25;;;;;;;4.28;2.92;;;17.70;49.20;;;;;;4211382;28;20036;-68
2022/04/24 09:03:47;;;;;;;6.05;3.53;;;17.60;48.90;;;;;;4211023;28;20051;-64
2022/04/24 09:06:21;;;;;;;3.22;2.90;;;17.70;48.90;;;;;;4210696;28;20052;-65
2022/04/24 09:08:44;;;;;;;3.88;3.45;;;17.70;49.20;;;;;;4209405;28;20097;-65
2022/04/24 09:11:24;;;;;;;2.80;2.55;;;17.70;49.20;;;;;;4209762;28;20155;-67
2022/04/24 09:16:33;;;;;;;6.75;2.92;;;17.70;48.60;;;;;;4210714;28;20055;-67
2022/04/24 09:18:55;;;;;;;3.88;3.28;;;17.70;48.30;;;;;;4209799;28;20040;-66
2022/04/24 09:21:18;;;;;;;5.40;3.25;;;17.80;48.00;;;;;;4211086;28;20036;-64
2022/04/24 09:23:42;;;;;;;3.67;3.25;;;17.70;48.90;;;;;;4210373;28;20127;-67
2022/04/24 09:26:06;;;;;;;4.93;3.20;;;17.70;48.60;;;;;;4210837;28;20044;-68
2022/04/24 09:28:37;;;;;;;4.13;3.25;;;17.70;48.60;;;;;;4210492;28;20047;-69
2022/04/24 09:31:03;;;;;;;6.68;3.60;;;17.70;49.00;;;;;;4208646;28;20051;-68
2022/04/24 09:33:36;;;;;;;5.15;2.85;;;17.80;49.30;;;;;;4210340;28;20056;-67
2022/04/24 09:35:58;;;;;;;3.80;3.03;;;17.80;49.60;;;;;;4209157;28;20105;-67
2022/04/24 09:38:21;;;;;;;3.60;3.30;;;17.80;49.70;;;;;;4204522;28;20074;-66
2022/04/24 09:40:44;;;;;;;3.40;3.10;;;17.90;49.10;;;;;;4210833;28;20052;-67
2022/04/24 09:43:10;;;;;;;3.03;2.70;;;17.90;48.60;;;;;;4210823;28;20059;-67
2022/04/24 09:45:32;;;;;;;5.65;3.20;;;17.90;48.30;;;;;;4209964;28;20093;-65
2022/04/24 09:48:13;;;;;;;4.03;2.92;;;17.90;48.40;;;;;;4209558;28;20044;-66
2022/04/24 09:50:37;;;;;;;4.20;2.88;;;18.00;48.50;;;;;;4209267;28;20055;-67
2022/04/24 09:52:59;;;;;;;2.80;2.30;;;18.00;49.30;;;;;;4210586;28;20103;-66
2022/04/24 09:55:22;;;;;;;3.88;2.63;;;18.00;49.20;;;;;;4210555;28;20048;-67
2022/04/24 09:57:46;;;;;;;3.10;2.80;;;18.00;49.10;;;;;;4209819;28;20044;-67
2022/04/24 10:00:11;;;;;;;4.38;2.83;;;18.10;48.60;;;;;;4210428;28;20141;-66
2022/04/24 10:02:33;;;;;;;2.95;2.60;;;18.10;48.70;;;;;;4210234;28;20489;-67
2022/04/24 10:04:56;;;;;;;4.25;3.00;;;18.10;48.90;;;;;;4210393;28;20048;-67
2022/04/24 10:07:19;;;;;;;4.22;2.40;;;18.10;48.70;;;;;;4210278;28;20138;-67
2022/04/24 10:09:42;;;;;;;3.83;2.83;;;18.20;47.90;;;;;;4183806;28;20505;-67
2022/04/24 10:12:06;;;;;;;5.07;3.33;;;18.20;48.10;;;;;;4193560;28;20068;-67
2022/04/24 10:14:30;;;;;;;6.13;2.80;;;18.20;48.40;;;;;;4199528;28;20117;-67
2022/04/24 10:17:10;;;;;;;4.85;2.70;;;18.20;49.20;;;;;;4210247;28;20052;-67
2022/04/24 10:19:44;;;;;;;2.70;2.50;;;18.20;48.50;;;;;;4209878;28;20131;-67
2022/04/24 10:22:12;;;;;;;3.63;2.50;;;18.20;47.60;;;;;;4209170;28;20555;-67
2022/04/24 10:24:42;;;;;;;2.78;2.50;;;18.20;47.60;;;;;;4199270;28;20063;-67
2022/04/24 10:27:07;;;;;;;3.95;2.20;;;18.20;47.00;;;;;;4210465;28;21549;-67
2022/04/24 10:29:29;;;;;;;3.08;2.78;;;18.20;47.40;;;;;;4209620;28;20075;-67
2022/04/24 10:31:52;;;;;;;3.53;2.42;;;18.20;47.10;;;;;;4208652;28;20040;-67
2022/04/24 10:34:18;;;;;;;5.03;2.47;;;18.20;47.20;;;;;;4209022;28;20143;-66
2022/04/24 10:36:56;;;;;;;4.28;2.42;;;18.30;47.40;;;;;;4213819;27;20043;-65
2022/04/24 10:39:19;;;;;;;5.47;2.30;;;18.30;47.50;;;;;;4211394;28;20151;-66
2022/04/24 10:42:00;;;;;;;2.97;2.47;;;18.30;47.70;;;;;;4192448;28;20521;-67
2022/04/24 10:44:22;;;;;;;2.33;2.13;;;18.30;47.70;;;;;;4196940;28;20071;-66
2022/04/24 10:46:48;;;;;;;3.28;2.30;;;18.30;47.90;;;;;;4209788;28;20055;-65
2022/04/24 10:49:12;;;;;;;3.92;2.25;;;18.30;46.80;;;;;;4209813;28;20044;-66
2022/04/24 10:51:37;;;;;;;3.05;2.13;;;18.30;46.70;;;;;;4209487;28;20051;-65
2022/04/24 10:54:01;;;;;;;2.05;1.92;;;18.30;46.80;;;;;;4209731;28;20044;-66
2022/04/24 10:56:23;;;;;;;3.00;2.22;;;18.30;46.40;;;;;;4208738;28;20063;-66
2022/04/24 10:58:46;;;;;;;2.35;1.88;;;18.40;46.60;;;;;;4209084;28;20040;-66
2022/04/24 11:01:14;;;;;;;3.67;2.20;;;18.40;46.80;;;;;;4209424;28;20044;-68
2022/04/24 11:03:41;;;;;;;2.70;2.50;;;18.30;46.70;;;;;;4209525;28;20043;-66
2022/04/24 11:06:03;;;;;;;2.90;2.60;;;18.40;47.30;;;;;;4208902;28;20067;-67
2022/04/24 11:08:27;;;;;;;3.72;2.92;;;18.40;46.60;;;;;;4209134;28;20062;-66
2022/04/24 11:10:50;;;;;;;10.80;3.47;;;18.40;46.50;;;;;;4208862;28;20055;-66
2022/04/24 11:13:14;;;;;;;6.75;2.67;;;18.40;46.60;;;;;;4207656;28;20471;-67
2022/04/24 11:15:37;;;;;;;3.17;2.85;;;18.40;46.90;;;;;;4209344;28;20048;-67
2022/04/24 11:17:59;;;;;;;4.60;3.40;;;18.40;47.00;;;;;;4209033;28;20558;-67
2022/04/24 11:20:27;;;;;;;3.42;2.88;;;18.40;47.60;;;;;;4207173;28;20107;-67
2022/04/24 11:22:50;;;;;;;4.57;2.85;;;18.40;47.80;;;;;;4209311;28;20550;-65
2022/04/24 11:25:15;;;;;;;2.92;2.72;;;18.30;47.80;;;;;;4209463;28;20051;-66
2022/04/24 11:27:37;;;;;;;3.55;3.28;;;18.40;47.70;;;;;;4209143;28;20051;-65
2022/04/24 11:29:59;;;;;;;5.85;3.38;;;18.40;47.30;;;;;;4208890;28;20048;-65
2022/04/24 11:32:22;;;;;;;4.25;2.80;;;18.40;47.10;;;;;;4207623;28;20101;-65
2022/04/24 11:34:44;;;;;;;5.25;3.30;;;18.40;47.80;;;;;;4209279;28;20052;-65
2022/04/24 11:37:08;;;;;;;5.70;3.30;;;18.30;47.90;;;;;;4207303;28;20044;-65
2022/04/24 11:39:30;;;;;;;3.90;3.10;;;18.40;47.50;;;;;;4211986;28;20052;-65
2022/04/24 11:41:55;;;;;;;4.97;3.70;;;18.40;47.50;;;;;;4208942;28;20040;-64
2022/04/24 11:52:55;;;;;;;3.80;3.13;;;18.30;48.00;;;;;;4208226;28;20532;-65
2022/04/24 11:55:21;;;;;;;4.30;3.58;;;18.30;48.20;;;;;;4225911;28;20135;-67
2022/04/24 11:57:45;;;;;;;3.40;3.10;;;18.30;48.00;;;;;;4209377;28;20614;-67
2022/04/24 12:00:09;;;;;;;5.53;3.33;;;18.30;48.20;;;;;;4190702;28;20048;-67
2022/04/24 12:02:31;;;;;;;5.50;4.05;;;18.30;48.70;;;;;;4192137;28;20511;-68
2022/04/24 12:04:55;;;;;;;5.50;3.80;;;18.30;49.50;;;;;;4191753;28;20106;-67
2022/04/24 12:07:17;;;;;;;5.80;3.83;;;18.30;49.50;;;;;;4192156;28;20121;-67
2022/04/24 12:09:39;;;;;;;5.97;3.97;;;18.40;50.00;;;;;;4207131;28;20047;-68
2022/04/24 12:12:10;;;;;;;4.20;3.90;;;18.40;49.80;;;;;;4208756;28;20044;-67
2022/04/24 12:14:34;;;;;;;6.88;4.15;;;18.40;50.10;;;;;;4208213;28;20054;-67
2022/04/24 12:17:02;;;;;;;7.57;3.90;;;18.40;50.50;;;;;;4208504;28;20047;-67
2022/04/24 12:19:26;;;;;;;6.93;4.35;;;18.40;50.60;;;;;;4208515;28;20049;-68
2022/04/24 12:21:49;;;;;;;5.15;4.05;;;18.40;50.70;;;;;;4206160;28;20109;-67
2022/04/24 12:24:12;;;;;;;5.95;3.97;;;18.40;50.80;;;;;;4208576;28;20055;-67
2022/04/24 12:26:33;;;;;;;5.18;3.13;;;18.30;49.80;;;;;;4207458;28;20372;-68
2022/04/24 12:29:04;;;;;;;5.25;3.90;;;18.40;49.50;;;;;;4208694;28;20098;-67
2022/04/24 12:31:28;;;;;;;4.43;3.97;;;18.30;49.60;;;;;;4208037;28;20056;-66
2022/04/24 12:33:53;;;;;;;6.57;4.60;;;18.40;50.10;;;;;;4208049;28;20482;-67
2022/04/24 12:36:15;;;;;;;6.18;3.80;;;18.40;50.10;;;;;;4208483;28;20048;-69